createdAt,value
2022-12-20T00:01:36.583Z,101682.88
2022-12-20T00:04:08.084Z,101687.06
2022-12-20T00:06:36.242Z,101692.53
2022-12-20T00:09:06.566Z,101702.88
2022-12-20T00:11:34.153Z,101708.69
2022-12-20T00:14:01.513Z,101700.06
2022-12-20T00:16:29.840Z,101703.72
2022-12-20T00:18:59.249Z,101708.69
2022-12-20T00:21:27.585Z,101708.16
2022-12-20T00:23:55.588Z,101710.12
2022-12-20T00:26:26.350Z,101706.56
2022-12-20T00:28:53.945Z,101700.44
2022-12-20T00:31:22.887Z,101691.84
2022-12-20T00:33:52.097Z,101689.00
2022-12-20T00:36:19.875Z,101682.19
2022-12-20T00:38:49.380Z,101676.69
2022-12-20T00:41:21.372Z,101679.69
2022-12-20T00:43:49.584Z,101687.75
2022-12-20T00:46:18.186Z,101683.88
2022-12-20T00:48:45.641Z,101672.50
2022-12-20T00:51:16.780Z,101667.47
2022-12-20T00:53:44.621Z,101672.69
2022-12-20T00:56:12.343Z,101666.38
2022-12-20T00:58:41.304Z,101652.03
2022-12-20T01:01:21.782Z,101648.31
2022-12-20T01:03:51.029Z,101652.19
2022-12-20T01:06:19.212Z,101654.06
2022-12-20T01:08:46.841Z,101653.34
2022-12-20T01:11:16.816Z,101658.22
2022-12-20T01:13:46.594Z,101653.53
2022-12-20T01:16:28.968Z,101649.09
2022-12-20T01:18:56.601Z,101640.94
2022-12-20T01:21:26.180Z,101650.06
2022-12-20T01:23:54.265Z,101649.78
2022-12-20T01:26:23.315Z,101654.41
2022-12-20T01:28:54.944Z,101657.97
2022-12-20T01:31:22.540Z,101653.84
2022-12-20T01:33:50.538Z,101635.69
2022-12-20T01:36:21.349Z,101629.69
2022-12-20T01:38:48.715Z,101626.47
2022-12-20T01:41:18.674Z,101616.44
2022-12-20T01:43:56.963Z,101618.59
2022-12-20T01:46:26.910Z,101612.00
2022-12-20T01:49:13.463Z,101605.63
2022-12-20T01:51:43.563Z,101618.41
2022-12-20T01:54:16.675Z,101598.75
2022-12-20T01:56:47.388Z,101591.28
2022-12-20T01:59:15.124Z,101578.81
2022-12-20T02:01:43.230Z,101584.72
2022-12-20T02:04:12.178Z,101583.19
2022-12-20T02:06:39.694Z,101571.31
2022-12-20T02:09:08.459Z,101573.88
2022-12-20T02:11:35.941Z,101569.81
2022-12-20T02:14:16.838Z,101565.91
2022-12-20T02:16:58.429Z,101562.09
2022-12-20T02:19:40.944Z,101552.84
2022-12-20T02:22:16.662Z,101557.03
2022-12-20T02:24:53.132Z,101566.09
2022-12-20T02:27:27.610Z,101566.16
2022-12-20T02:30:06.658Z,101564.75
2022-12-20T02:32:43.231Z,101564.50
2022-12-20T02:35:14.946Z,101572.47
2022-12-20T02:37:54.796Z,101565.13
2022-12-20T02:40:25.200Z,101552.97
2022-12-20T02:42:56.330Z,101555.72
2022-12-20T02:45:28.016Z,101552.19
2022-12-20T02:48:01.268Z,101556.63
2022-12-20T02:50:35.872Z,101551.75
2022-12-20T02:53:05.236Z,101548.00
2022-12-20T02:56:00.387Z,101548.00
2022-12-20T02:58:42.984Z,101539.16
2022-12-20T03:01:23.811Z,101537.88
2022-12-20T03:03:51.717Z,101525.84
2022-12-20T03:06:19.575Z,101528.87
2022-12-20T03:08:47.338Z,101520.97
2022-12-20T03:11:15.045Z,101522.66
2022-12-20T03:13:42.699Z,101531.59
2022-12-20T03:16:10.944Z,101537.72
2022-12-20T03:18:39.093Z,101529.31
2022-12-20T03:21:06.449Z,101527.09
2022-12-20T03:23:34.184Z,101527.53
2022-12-20T03:26:01.798Z,101514.34
2022-12-20T03:28:30.445Z,101507.78
2022-12-20T03:30:58.005Z,101520.31
2022-12-20T03:33:25.810Z,101522.66
2022-12-20T03:35:53.367Z,101518.22
2022-12-20T03:38:21.464Z,101525.50
2022-12-20T03:40:49.048Z,101523.03
2022-12-20T03:43:17.043Z,101530.09
2022-12-20T03:45:44.643Z,101535.69
2022-12-20T03:48:12.294Z,101534.41
2022-12-20T03:50:39.689Z,101529.34
2022-12-20T03:53:07.688Z,101524.78
2022-12-20T03:55:35.328Z,101525.94
2022-12-20T03:58:02.793Z,101530.81
2022-12-20T04:00:30.714Z,101516.47
2022-12-20T04:02:59.050Z,101519.03
2022-12-20T04:05:27.030Z,101510.75
2022-12-20T04:07:54.434Z,101516.06
2022-12-20T04:10:22.027Z,101505.53
2022-12-20T04:12:49.416Z,101499.75
2022-12-20T04:15:17.116Z,101486.50
2022-12-20T04:17:45.471Z,101481.59
2022-12-20T04:20:20.400Z,101471.22
2022-12-20T04:22:50.038Z,101463.94
2022-12-20T04:25:19.825Z,101465.59
2022-12-20T04:27:47.790Z,101462.06
2022-12-20T04:30:15.509Z,101464.09
2022-12-20T04:32:43.203Z,101455.78
2022-12-20T04:35:11.301Z,101457.19
2022-12-20T04:37:39.525Z,101460.72
2022-12-20T04:40:07.728Z,101464.28
2022-12-20T04:42:36.374Z,101455.66
2022-12-20T04:45:04.389Z,101463.97
2022-12-20T04:47:32.099Z,101463.25
2022-12-20T04:49:59.562Z,101466.25
2022-12-20T04:52:48.018Z,101464.09
2022-12-20T04:55:16.140Z,101468.44
2022-12-20T04:57:43.886Z,101488.59
2022-12-20T05:00:11.987Z,101482.91
2022-12-20T05:02:39.925Z,101484.47
2022-12-20T05:05:08.599Z,101482.59
2022-12-20T05:07:36.755Z,101488.50
2022-12-20T05:10:04.649Z,101484.50
2022-12-20T05:12:32.419Z,101490.56
2022-12-20T05:15:00.568Z,101496.69
2022-12-20T05:17:27.913Z,101497.81
2022-12-20T05:19:55.515Z,101497.81
2022-12-20T05:22:41.466Z,101496.84
2022-12-20T05:25:31.751Z,101491.44
2022-12-20T05:27:59.848Z,101505.59
2022-12-20T05:30:27.769Z,101509.00
2022-12-20T05:32:55.552Z,101508.50
2022-12-20T05:35:23.007Z,101501.34
2022-12-20T05:37:52.821Z,101501.53
2022-12-20T05:40:20.732Z,101501.81
2022-12-20T05:42:48.104Z,101501.53
2022-12-20T05:45:15.933Z,101497.63
2022-12-20T05:47:44.938Z,101493.31
2022-12-20T05:50:18.535Z,101493.47
2022-12-20T05:53:07.454Z,101493.59
2022-12-20T05:55:40.528Z,101492.44
2022-12-20T05:58:08.388Z,101479.78
2022-12-20T06:00:37.373Z,101468.94
2022-12-20T06:03:05.949Z,101469.81
2022-12-20T06:05:38.813Z,101465.13
2022-12-20T06:08:07.255Z,101467.37
2022-12-20T06:10:35.134Z,101464.09
2022-12-20T06:13:03.847Z,101467.56
2022-12-20T06:15:32.100Z,101448.22
2022-12-20T06:18:00.591Z,101460.00
2022-12-20T06:20:28.628Z,101459.69
2022-12-20T06:22:58.126Z,101453.91
2022-12-20T06:25:28.430Z,101447.97
2022-12-20T06:27:56.477Z,101455.94
2022-12-20T06:30:30.238Z,101466.66
2022-12-20T06:33:04.245Z,101461.28
2022-12-20T06:35:32.231Z,101459.94
2022-12-20T06:37:59.694Z,101449.97
2022-12-20T06:40:27.847Z,101449.12
2022-12-20T06:42:56.558Z,101452.47
2022-12-20T06:45:24.131Z,101447.06
2022-12-20T06:47:52.765Z,101454.16
2022-12-20T06:50:20.596Z,101447.41
2022-12-20T06:52:47.940Z,101440.56
2022-12-20T06:55:15.681Z,101429.19
2022-12-20T06:57:43.120Z,101431.19
2022-12-20T07:00:12.794Z,101437.94
2022-12-20T07:02:40.649Z,101440.75
2022-12-20T07:05:08.253Z,101425.66
2022-12-20T07:07:42.176Z,101432.41
2022-12-20T07:10:12.391Z,101425.66
2022-12-20T07:12:45.474Z,101421.56
2022-12-20T07:15:15.756Z,101425.66
2022-12-20T07:17:43.212Z,101427.75
2022-12-20T07:20:13.890Z,101426.00
2022-12-20T07:22:42.264Z,101424.34
2022-12-20T07:25:11.335Z,101421.66
2022-12-20T07:27:38.734Z,101432.59
2022-12-20T07:30:06.863Z,101442.41
2022-12-20T07:32:34.285Z,101450.28
2022-12-20T07:35:01.716Z,101439.59
2022-12-20T07:37:29.951Z,101442.91
2022-12-20T07:39:57.325Z,101449.00
2022-12-20T07:42:28.990Z,101447.09
2022-12-20T07:45:03.661Z,101441.28
2022-12-20T07:47:31.285Z,101445.47
2022-12-20T07:49:58.685Z,101440.81
2022-12-20T07:52:29.220Z,101432.97
2022-12-20T07:55:01.981Z,101421.28
2022-12-20T07:57:38.114Z,101417.34
2022-12-20T08:00:06.279Z,101415.75
2022-12-20T08:02:44.154Z,101416.00
2022-12-20T08:05:12.552Z,101420.91
2022-12-20T08:07:41.747Z,101420.41
2022-12-20T08:10:11.263Z,101401.28
2022-12-20T08:12:39.256Z,101390.72
2022-12-20T08:15:07.525Z,101387.03
2022-12-20T08:17:35.030Z,101385.19
2022-12-20T08:20:03.490Z,101378.34
2022-12-20T08:22:30.855Z,101384.38
2022-12-20T08:24:58.236Z,101380.06
2022-12-20T08:27:25.904Z,101390.97
2022-12-20T08:29:53.293Z,101396.41
2022-12-20T08:32:20.635Z,101394.53
2022-12-20T08:34:48.418Z,101385.78
2022-12-20T08:37:19.610Z,101388.19
2022-12-20T08:39:46.982Z,101391.38
2022-12-20T08:42:14.707Z,101387.53
2022-12-20T08:44:42.084Z,101378.34
2022-12-20T08:47:10.331Z,101387.84
2022-12-20T08:49:42.419Z,101384.09
2022-12-20T08:52:13.095Z,101368.09
2022-12-20T08:54:40.766Z,101373.47
2022-12-20T08:57:08.468Z,101375.94
2022-12-20T08:59:35.866Z,101371.75
2022-12-20T09:02:03.620Z,101372.47
2022-12-20T09:04:31.218Z,101369.31
2022-12-20T09:06:58.557Z,101373.47
2022-12-20T09:09:26.176Z,101376.50
2022-12-20T09:11:53.537Z,101377.69
2022-12-20T09:14:20.878Z,101382.13
2022-12-20T09:16:49.159Z,101390.31
2022-12-20T09:19:16.507Z,101381.59
2022-12-20T09:21:44.281Z,101380.78
2022-12-20T09:24:11.956Z,101389.56
2022-12-20T09:26:40.806Z,101390.56
2022-12-20T09:29:08.262Z,101381.53
2022-12-20T09:31:37.072Z,101368.91
2022-12-20T09:34:04.529Z,101370.53
2022-12-20T09:36:32.095Z,101354.12
2022-12-20T09:38:59.841Z,101343.66
2022-12-20T09:41:38.584Z,101348.97
2022-12-20T09:44:33.841Z,101337.94
2022-12-20T09:47:10.475Z,101329.59
2022-12-20T09:49:42.070Z,101325.56
2022-12-20T09:52:46.390Z,101324.97
2022-12-20T09:55:32.763Z,101333.38
2022-12-20T09:58:27.807Z,101330.47
2022-12-20T10:00:55.768Z,101322.41
2022-12-20T10:03:30.083Z,101325.53
2022-12-20T10:06:04.649Z,101322.50
2022-12-20T10:08:50.644Z,101324.97
2022-12-20T10:11:36.627Z,101320.25
2022-12-20T10:14:45.226Z,101314.25
2022-12-20T10:17:36.156Z,101315.72
2022-12-20T10:20:19.301Z,101302.28
2022-12-20T10:22:53.323Z,101310.91
2022-12-20T10:25:30.297Z,101312.31
2022-12-20T10:27:58.581Z,101305.53
2022-12-20T10:30:27.433Z,101306.00
2022-12-20T10:32:56.931Z,101290.91
2022-12-20T10:35:46.369Z,101280.06
2022-12-20T10:38:17.542Z,101266.81
2022-12-20T10:43:51.777Z,101260.09
2022-12-20T10:46:19.474Z,101269.16
2022-12-20T10:48:49.050Z,101254.13
2022-12-20T10:51:20.168Z,101249.84
2022-12-20T10:53:59.746Z,101252.69
2022-12-20T10:56:32.592Z,101247.09
2022-12-20T10:59:30.620Z,101239.66
2022-12-20T11:01:58.391Z,101233.94
2022-12-20T11:04:28.899Z,101232.63
2022-12-20T11:06:57.197Z,101230.37
2022-12-20T11:09:37.688Z,101226.00
2022-12-20T11:12:16.553Z,101213.03
2022-12-20T11:14:45.988Z,101202.19
2022-12-20T11:17:29.786Z,101195.22
2022-12-20T11:20:26.546Z,101197.03
2022-12-20T11:23:19.173Z,101188.22
2022-12-20T11:25:56.536Z,101194.03
2022-12-20T11:28:39.163Z,101202.31
2022-12-20T11:31:24.811Z,101199.94
2022-12-20T11:33:55.246Z,101199.75
2022-12-20T11:36:50.810Z,101202.69
2022-12-20T11:39:39.234Z,101197.41
2022-12-20T11:42:16.842Z,101195.91
2022-12-20T11:45:03.295Z,101188.25
2022-12-20T11:47:48.704Z,101189.97
2022-12-20T11:50:36.856Z,101184.62
2022-12-20T11:53:31.949Z,101174.28
2022-12-20T11:56:02.803Z,101175.00
2022-12-20T11:58:52.780Z,101178.16
2022-12-20T12:01:25.555Z,101172.44
2022-12-20T12:04:13.588Z,101172.87
2022-12-20T12:06:46.385Z,101168.81
2022-12-20T12:09:17.136Z,101155.37
2022-12-20T12:12:08.742Z,101151.34
2022-12-20T12:14:52.361Z,101139.06
2022-12-20T12:17:44.359Z,101153.97
2022-12-20T12:20:28.424Z,101149.97
2022-12-20T12:23:02.197Z,101148.28
2022-12-20T12:25:29.904Z,101142.72
2022-12-20T12:27:57.298Z,101145.16
2022-12-20T12:30:24.734Z,101131.19
2022-12-20T12:32:56.938Z,101135.75
2022-12-20T12:35:59.881Z,101129.28
2022-12-20T12:38:55.650Z,101127.12
2022-12-20T12:42:04.859Z,101122.53
2022-12-20T12:44:38.941Z,101117.09
2022-12-20T12:47:12.758Z,101113.16
2022-12-20T12:49:40.893Z,101119.91
2022-12-20T12:52:40.287Z,101124.03
2022-12-20T12:55:35.778Z,101123.91
2022-12-20T12:58:24.714Z,101125.25
2022-12-20T13:00:52.384Z,101120.12
2022-12-20T13:03:41.560Z,101117.69
2022-12-20T13:06:28.373Z,101108.56
2022-12-20T13:08:55.763Z,101108.91
2022-12-20T13:11:34.319Z,101104.00
2022-12-20T13:14:27.419Z,101108.19
2022-12-20T13:17:25.561Z,101107.94
2022-12-20T13:19:55.384Z,101104.25
2022-12-20T13:22:26.838Z,101097.84
2022-12-20T13:24:58.044Z,101089.81
2022-12-20T13:27:31.028Z,101094.81
2022-12-20T13:30:00.186Z,101085.66
2022-12-20T13:32:46.622Z,101096.03
2022-12-20T13:35:25.978Z,101086.34
2022-12-20T13:38:05.726Z,101088.75
2022-12-20T13:40:43.921Z,101085.28
2022-12-20T13:43:21.781Z,101079.78
2022-12-20T13:46:04.542Z,101078.25
2022-12-20T13:48:38.314Z,101078.13
2022-12-20T13:51:08.101Z,101081.47
2022-12-20T13:53:36.090Z,101083.97
2022-12-20T13:56:42.366Z,101072.34
2022-12-20T13:59:27.839Z,101059.59
2022-12-20T14:01:59.092Z,101053.09
2022-12-20T14:04:28.603Z,101057.28
2022-12-20T14:06:58.643Z,101050.06
2022-12-20T14:09:28.620Z,101042.97
2022-12-20T14:12:21.179Z,101043.31
2022-12-20T14:14:53.181Z,101046.53
2022-12-20T14:17:25.897Z,101047.59
2022-12-20T14:20:07.176Z,101049.25
2022-12-20T14:22:36.204Z,101040.31
2022-12-20T14:25:05.645Z,101039.03
2022-12-20T14:27:36.010Z,101037.09
2022-12-20T14:30:05.769Z,101037.34
2022-12-20T14:32:33.158Z,101019.50
2022-12-20T14:35:00.619Z,101017.78
2022-12-20T14:37:31.803Z,101007.66
2022-12-20T14:40:04.242Z,101000.81
2022-12-20T14:42:37.013Z,100998.69
2022-12-20T14:45:17.371Z,100997.28
2022-12-20T14:47:55.370Z,100997.25
2022-12-20T14:50:34.525Z,100996.56
2022-12-20T14:53:02.930Z,100997.34
2022-12-20T14:55:32.530Z,100999.59
2022-12-20T14:57:59.979Z,101005.75
2022-12-20T15:00:33.409Z,100996.28
2022-12-20T15:03:15.655Z,101004.62
2022-12-20T15:05:45.477Z,101008.69
2022-12-20T15:08:17.269Z,100999.44
2022-12-20T15:11:10.787Z,101003.81
2022-12-20T15:13:43.192Z,100998.50
2022-12-20T15:16:25.830Z,100999.81
2022-12-20T15:18:56.032Z,100997.47
2022-12-20T15:21:31.248Z,100998.16
2022-12-20T15:24:00.971Z,100992.59
2022-12-20T15:26:29.519Z,100997.41
2022-12-20T15:28:57.641Z,100994.97
2022-12-20T15:31:33.294Z,100991.62
2022-12-20T15:34:04.851Z,100994.97
2022-12-20T15:36:33.948Z,100998.66
2022-12-20T15:39:17.147Z,101007.28
2022-12-20T15:41:48.837Z,101004.38
2022-12-20T15:44:19.382Z,101009.47
2022-12-20T15:46:47.194Z,101019.91
2022-12-20T15:49:28.141Z,101019.72
2022-12-20T15:51:56.161Z,101020.72
2022-12-20T15:54:27.565Z,101019.03
2022-12-20T15:57:00.034Z,101024.69
2022-12-20T16:02:29.438Z,101020.47
2022-12-20T16:04:58.700Z,101018.91
2022-12-20T16:07:27.296Z,101023.31
2022-12-20T16:09:54.738Z,101021.31
2022-12-20T16:12:32.725Z,101020.28
2022-12-20T16:15:00.161Z,101020.09
2022-12-20T16:17:27.878Z,101018.69
2022-12-20T16:19:55.565Z,101020.91
2022-12-20T16:22:24.017Z,101020.72
2022-12-20T16:24:52.135Z,101011.38
2022-12-20T16:27:20.399Z,101006.44
2022-12-20T16:29:47.927Z,101005.56
2022-12-20T16:32:17.632Z,101003.25
2022-12-20T16:34:45.682Z,100996.22
2022-12-20T16:37:13.340Z,100995.72
2022-12-20T16:39:41.720Z,100999.19
2022-12-20T16:42:14.869Z,100997.31
2022-12-20T16:44:45.076Z,100995.91
2022-12-20T16:47:13.991Z,101000.63
2022-12-20T16:49:51.210Z,100996.56
2022-12-20T16:52:22.182Z,101003.72
2022-12-20T16:54:50.599Z,101002.47
2022-12-20T16:57:18.354Z,100998.03
2022-12-20T16:59:46.190Z,101002.41
2022-12-20T17:02:26.626Z,100982.87
2022-12-20T17:04:54.991Z,100984.44
2022-12-20T17:07:22.601Z,100970.25
2022-12-20T17:12:35.655Z,100979.34
2022-12-20T17:15:04.799Z,100964.97
2022-12-20T17:17:32.163Z,100971.63
2022-12-20T17:20:00.062Z,100976.09
2022-12-20T17:22:27.500Z,100981.56
2022-12-20T17:24:54.932Z,100979.75
2022-12-20T17:27:22.682Z,100967.44
2022-12-20T17:29:50.749Z,100964.69
2022-12-20T17:32:21.137Z,100964.56
2022-12-20T17:34:49.042Z,100968.28
2022-12-20T17:37:17.518Z,100969.13
2022-12-20T17:39:45.031Z,100973.78
2022-12-20T17:42:13.745Z,100974.50
2022-12-20T17:44:41.212Z,100980.34
2022-12-20T17:47:08.762Z,100987.09
2022-12-20T17:49:36.624Z,100980.78
2022-12-20T17:52:04.491Z,100982.44
2022-12-20T17:54:39.115Z,100979.22
2022-12-20T17:57:13.469Z,100971.53
2022-12-20T17:59:41.399Z,100958.53
2022-12-20T18:02:19.495Z,100953.13
2022-12-20T18:04:47.461Z,100944.00
2022-12-20T18:07:15.003Z,100956.63
2022-12-20T18:09:42.477Z,100954.22
2022-12-20T18:12:10.851Z,100948.69
2022-12-20T18:14:38.293Z,100942.06
2022-12-20T18:17:05.710Z,100947.25
2022-12-20T18:19:33.457Z,100945.00
2022-12-20T18:22:01.541Z,100936.59
2022-12-20T18:24:28.963Z,100935.37
2022-12-20T18:26:56.676Z,100927.78
2022-12-20T18:29:24.027Z,100921.16
2022-12-20T18:31:51.393Z,100918.41
2022-12-20T18:34:19.068Z,100915.56
2022-12-20T18:36:46.518Z,100913.34
2022-12-20T18:39:13.970Z,100908.41
2022-12-20T18:41:43.050Z,100908.94
2022-12-20T18:44:11.650Z,100905.06
2022-12-20T18:46:39.496Z,100916.97
2022-12-20T18:49:07.213Z,100926.53
2022-12-20T18:51:36.781Z,100922.13
2022-12-20T18:54:06.026Z,100919.78
2022-12-20T18:56:35.908Z,100917.12
2022-12-20T18:59:11.448Z,100917.22
2022-12-20T19:01:40.730Z,100910.41
2022-12-20T19:04:08.867Z,100914.53
2022-12-20T19:06:36.935Z,100916.59
2022-12-20T19:09:08.020Z,100917.12
2022-12-20T19:11:35.606Z,100908.81
2022-12-20T19:14:03.563Z,100899.13
2022-12-20T19:16:32.812Z,100888.06
2022-12-20T19:19:01.915Z,100879.38
2022-12-20T19:21:33.882Z,100867.72
2022-12-20T19:24:06.849Z,100873.56
2022-12-20T19:26:36.399Z,100878.91
2022-12-20T19:29:05.140Z,100887.09
2022-12-20T19:31:34.943Z,100893.84
2022-12-20T19:34:05.246Z,100889.69
2022-12-20T19:36:44.114Z,100886.06
2022-12-20T19:39:14.728Z,100881.37
2022-12-20T19:41:42.713Z,100894.37
2022-12-20T19:44:10.225Z,100898.59
2022-12-20T19:46:38.206Z,100904.69
2022-12-20T19:49:06.288Z,100904.16
2022-12-20T19:51:33.836Z,100910.69
2022-12-20T19:54:01.381Z,100918.22
2022-12-20T19:56:31.779Z,100919.00
2022-12-20T19:58:59.601Z,100915.84
2022-12-20T20:01:28.097Z,100909.62
2022-12-20T20:03:58.125Z,100916.94
2022-12-20T20:06:26.727Z,100912.31
2022-12-20T20:08:57.477Z,100918.41
2022-12-20T20:11:25.752Z,100909.62
2022-12-20T20:13:53.199Z,100921.44
2022-12-20T20:16:22.759Z,100913.12
2022-12-20T20:18:51.226Z,100907.91
2022-12-20T20:21:22.469Z,100905.38
2022-12-20T20:23:51.357Z,100901.91
2022-12-20T20:26:22.549Z,100891.88
2022-12-20T20:28:50.457Z,100894.37
2022-12-20T20:31:19.376Z,100890.41
2022-12-20T20:33:47.536Z,100898.19
2022-12-20T20:36:17.582Z,100899.06
2022-12-20T20:38:45.607Z,100883.47
2022-12-20T20:41:14.292Z,100877.63
2022-12-20T20:43:42.348Z,100890.53
2022-12-20T20:46:12.826Z,100883.00
2022-12-20T20:48:40.928Z,100876.00
2022-12-20T20:51:08.827Z,100881.16
2022-12-20T20:53:36.510Z,100872.53
2022-12-20T20:56:05.385Z,100874.34
2022-12-20T20:58:33.674Z,100880.59
2022-12-20T21:01:03.118Z,100884.06
2022-12-20T21:03:31.406Z,100869.78
2022-12-20T21:08:46.763Z,100871.59
2022-12-20T21:11:14.376Z,100861.22
2022-12-20T21:13:41.870Z,100851.72
2022-12-20T21:16:12.221Z,100850.91
2022-12-20T21:18:39.949Z,100857.47
2022-12-20T21:21:09.314Z,100857.22
2022-12-20T21:23:37.432Z,100852.06
2022-12-20T21:26:05.206Z,100854.63
2022-12-20T21:28:32.713Z,100850.50
2022-12-20T21:31:01.838Z,100838.47
2022-12-20T21:33:29.316Z,100833.06
2022-12-20T21:36:00.602Z,100838.06
2022-12-20T21:38:28.681Z,100829.94
2022-12-20T21:41:08.108Z,100824.38
2022-12-20T21:43:35.791Z,100819.59
2022-12-20T21:46:03.318Z,100820.31
2022-12-20T21:48:31.087Z,100811.97
2022-12-20T21:51:02.802Z,100803.66
2022-12-20T21:53:30.828Z,100798.12
2022-12-20T21:55:59.923Z,100803.09
2022-12-20T21:58:29.718Z,100805.91
2022-12-20T22:00:57.697Z,100806.31
2022-12-20T22:03:26.186Z,100796.75
2022-12-20T22:05:55.696Z,100800.28
2022-12-20T22:08:24.703Z,100797.22
2022-12-20T22:11:02.314Z,100786.16
2022-12-20T22:13:35.579Z,100777.66
2022-12-20T22:16:10.421Z,100767.81
2022-12-20T22:18:38.467Z,100767.00
2022-12-20T22:21:07.600Z,100778.28
2022-12-20T22:23:35.319Z,100764.69
2022-12-20T22:26:04.120Z,100771.78
2022-12-20T22:28:31.472Z,100772.84
2022-12-20T22:30:59.150Z,100769.75
2022-12-20T22:33:26.816Z,100763.97
2022-12-20T22:35:54.234Z,100747.19
2022-12-20T22:38:21.901Z,100750.50
2022-12-20T22:40:49.299Z,100747.06
2022-12-20T22:43:16.694Z,100733.50
2022-12-20T22:45:44.432Z,100726.62
2022-12-20T22:48:11.845Z,100726.78
2022-12-20T22:50:39.210Z,100720.78
2022-12-20T22:53:06.980Z,100717.94
2022-12-20T22:55:34.710Z,100722.91
2022-12-20T22:58:02.084Z,100717.50
2022-12-20T23:00:29.724Z,100722.81
2022-12-20T23:02:57.286Z,100724.34
2022-12-20T23:05:24.830Z,100720.38
2022-12-20T23:07:52.464Z,100720.59
2022-12-20T23:10:38.636Z,100718.37
2022-12-20T23:13:24.520Z,100709.47
2022-12-20T23:15:51.898Z,100709.28
2022-12-20T23:18:19.557Z,100711.31
2022-12-20T23:21:11.924Z,100710.97
2022-12-20T23:23:39.653Z,100705.94
2022-12-20T23:26:16.199Z,100701.34
2022-12-20T23:28:44.238Z,100697.03
2022-12-20T23:31:11.686Z,100693.50
2022-12-20T23:33:39.296Z,100694.66
2022-12-20T23:36:07.439Z,100695.59
2022-12-20T23:38:36.315Z,100689.38
2022-12-20T23:41:11.334Z,100685.63
2022-12-20T23:43:39.536Z,100682.00
2022-12-20T23:46:11.844Z,100684.06
2022-12-20T23:48:39.947Z,100681.16
2022-12-20T23:51:07.607Z,100679.06
2022-12-20T23:53:35.087Z,100661.94
2022-12-20T23:56:10.403Z,100657.44
2022-12-20T23:58:38.301Z,100653.28
